createdAt,value
2018-11-04T00:00:29.537Z,23.48
2018-11-04T00:01:04.896Z,23.45
2018-11-04T00:01:40.252Z,23.49
2018-11-04T00:02:15.751Z,23.47
2018-11-04T00:02:51.821Z,23.49
2018-11-04T00:03:27.414Z,23.50
2018-11-04T00:04:02.713Z,23.51
2018-11-04T00:04:38.206Z,23.53
2018-11-04T00:05:13.747Z,23.50
2018-11-04T00:05:49.041Z,23.43
2018-11-04T00:06:24.310Z,23.37
2018-11-04T00:06:59.559Z,23.34
2018-11-04T00:07:34.887Z,23.31
2018-11-04T00:08:10.114Z,23.25
2018-11-04T00:08:45.370Z,23.27
2018-11-04T00:09:20.819Z,23.29
2018-11-04T00:09:56.206Z,23.37
2018-11-04T00:10:31.755Z,23.37
2018-11-04T00:11:07.548Z,23.39
2018-11-04T00:11:42.992Z,23.41
2018-11-04T00:12:18.576Z,23.42
2018-11-04T00:12:53.797Z,23.40
2018-11-04T00:13:29.225Z,23.46
2018-11-04T00:14:04.462Z,23.40
2018-11-04T00:14:39.849Z,23.43
2018-11-04T00:15:15.200Z,23.44
2018-11-04T00:15:50.567Z,23.45
2018-11-04T00:16:25.923Z,23.44
2018-11-04T00:17:01.217Z,23.47
2018-11-04T00:17:37.290Z,23.47
2018-11-04T00:18:12.515Z,23.48
2018-11-04T00:18:47.874Z,23.45
2018-11-04T00:19:23.229Z,23.49
2018-11-04T00:19:58.530Z,23.46
2018-11-04T00:20:33.949Z,23.44
2018-11-04T00:21:09.186Z,23.44
2018-11-04T00:21:44.589Z,23.44
2018-11-04T00:22:19.998Z,23.37
2018-11-04T00:22:55.372Z,23.30
2018-11-04T00:23:30.772Z,23.31
2018-11-04T00:24:06.044Z,23.28
2018-11-04T00:24:41.168Z,23.29
2018-11-04T00:25:16.527Z,23.33
2018-11-04T00:25:52.003Z,23.36
2018-11-04T00:26:27.486Z,23.39
2018-11-04T00:27:02.848Z,23.37
2018-11-04T00:27:38.473Z,23.35
2018-11-04T00:28:13.985Z,23.38
2018-11-04T00:28:49.347Z,23.40
2018-11-04T00:29:24.618Z,23.41
2018-11-04T00:30:00.783Z,23.42
2018-11-04T00:30:35.973Z,23.41
2018-11-04T00:31:11.468Z,23.38
2018-11-04T00:31:46.794Z,23.41
2018-11-04T00:32:22.339Z,23.41
2018-11-04T00:32:57.747Z,23.38
2018-11-04T00:33:33.254Z,23.40
2018-11-04T00:34:08.446Z,23.38
2018-11-04T00:34:43.706Z,23.39
2018-11-04T00:35:18.969Z,23.43
2018-11-04T00:35:54.250Z,23.45
2018-11-04T00:36:29.605Z,23.44
2018-11-04T00:37:04.945Z,23.45
2018-11-04T00:37:40.660Z,23.47
2018-11-04T00:38:15.868Z,23.44
2018-11-04T00:38:51.335Z,23.39
2018-11-04T00:39:26.667Z,23.30
2018-11-04T00:40:01.930Z,23.27
2018-11-04T00:40:37.290Z,23.32
2018-11-04T00:41:12.694Z,23.32
2018-11-04T00:41:48.164Z,23.35
2018-11-04T00:42:23.473Z,23.30
2018-11-04T00:42:58.818Z,23.37
2018-11-04T00:43:34.536Z,23.36
2018-11-04T00:44:09.785Z,23.36
2018-11-04T00:44:45.082Z,23.35
2018-11-04T00:45:20.541Z,23.37
2018-11-04T00:45:55.992Z,23.37
2018-11-04T00:46:31.438Z,23.35
2018-11-04T00:47:06.839Z,23.34
2018-11-04T00:47:42.397Z,23.36
2018-11-04T00:48:17.731Z,23.36
2018-11-04T00:48:53.208Z,23.39
2018-11-04T00:49:28.709Z,23.37
2018-11-04T00:50:03.975Z,23.34
2018-11-04T00:50:39.295Z,23.38
2018-11-04T00:51:14.669Z,23.39
2018-11-04T00:51:49.948Z,23.39
2018-11-04T00:52:25.223Z,23.40
2018-11-04T00:53:00.512Z,23.41
2018-11-04T00:53:35.833Z,23.39
2018-11-04T00:54:11.248Z,23.40
2018-11-04T00:54:46.681Z,23.34
2018-11-04T00:55:22.133Z,23.38
2018-11-04T00:55:57.536Z,23.38
2018-11-04T00:56:32.750Z,23.31
2018-11-04T00:57:08.138Z,23.30
2018-11-04T00:57:43.716Z,23.30
2018-11-04T00:58:19.257Z,23.29
2018-11-04T00:58:54.640Z,23.27
2018-11-04T00:59:29.838Z,23.27
2018-11-04T01:00:06.808Z,23.28
2018-11-04T01:00:42.211Z,23.28
2018-11-04T01:01:17.419Z,23.25
2018-11-04T01:01:52.813Z,23.24
2018-11-04T01:02:28.135Z,23.24
2018-11-04T01:03:03.415Z,23.27
2018-11-04T01:03:38.772Z,23.28
2018-11-04T01:04:14.094Z,23.28
2018-11-04T01:04:49.434Z,23.28
2018-11-04T01:05:25.000Z,23.27
2018-11-04T01:06:00.240Z,23.29
2018-11-04T01:06:35.671Z,23.28
2018-11-04T01:07:10.904Z,23.28
2018-11-04T01:07:46.323Z,23.30
2018-11-04T01:08:21.853Z,23.34
2018-11-04T01:08:56.981Z,23.36
2018-11-04T01:09:33.133Z,23.36
2018-11-04T01:10:10.172Z,23.38
2018-11-04T01:10:45.826Z,23.40
2018-11-04T01:11:21.175Z,23.43
2018-11-04T01:11:56.639Z,23.42
2018-11-04T01:12:32.169Z,23.40
2018-11-04T01:13:07.499Z,23.36
2018-11-04T01:13:43.073Z,23.34
2018-11-04T01:14:18.412Z,23.32
2018-11-04T01:14:53.741Z,23.28
2018-11-04T01:15:29.054Z,23.28
2018-11-04T01:16:04.479Z,23.25
2018-11-04T01:16:40.103Z,23.25
2018-11-04T01:17:15.534Z,23.24
2018-11-04T01:17:50.864Z,23.26
2018-11-04T01:18:26.274Z,23.28
2018-11-04T01:19:01.811Z,23.27
2018-11-04T01:19:37.171Z,23.25
2018-11-04T01:20:14.677Z,23.26
2018-11-04T01:20:50.041Z,23.27
2018-11-04T01:21:25.511Z,23.26
2018-11-04T01:22:01.173Z,23.25
2018-11-04T01:22:36.570Z,23.24
2018-11-04T01:23:11.869Z,23.28
2018-11-04T01:23:47.465Z,23.29
2018-11-04T01:24:23.012Z,23.25
2018-11-04T01:24:58.477Z,23.28
2018-11-04T01:25:33.978Z,23.32
2018-11-04T01:26:09.594Z,23.34
2018-11-04T01:26:45.099Z,23.34
2018-11-04T01:27:20.466Z,23.35
2018-11-04T01:27:55.695Z,23.30
2018-11-04T01:28:31.155Z,23.28
2018-11-04T01:29:06.778Z,23.30
2018-11-04T01:29:42.161Z,23.33
2018-11-04T01:30:17.725Z,23.32
2018-11-04T01:30:52.861Z,23.31
2018-11-04T01:31:28.480Z,23.28
2018-11-04T01:32:03.842Z,23.33
2018-11-04T01:32:39.325Z,23.32
2018-11-04T01:33:14.735Z,23.30
2018-11-04T01:33:50.232Z,23.25
2018-11-04T01:34:25.499Z,23.25
2018-11-04T01:35:01.123Z,23.22
2018-11-04T01:35:36.439Z,23.23
2018-11-04T01:36:11.848Z,23.24
2018-11-04T01:36:47.314Z,23.22
2018-11-04T01:37:22.785Z,23.22
2018-11-04T01:37:58.078Z,23.18
2018-11-04T01:38:33.648Z,23.21
2018-11-04T01:39:10.341Z,23.21
2018-11-04T01:39:45.711Z,23.22
2018-11-04T01:40:21.040Z,23.19
2018-11-04T01:40:56.411Z,23.21
2018-11-04T01:41:31.605Z,23.22
2018-11-04T01:42:07.321Z,23.27
2018-11-04T01:42:42.707Z,23.25
2018-11-04T01:43:18.122Z,23.28
2018-11-04T01:43:53.618Z,23.31
2018-11-04T01:44:29.112Z,23.27
2018-11-04T01:45:04.642Z,23.26
2018-11-04T01:45:39.775Z,23.28
2018-11-04T01:46:15.148Z,23.21
2018-11-04T01:46:51.184Z,23.18
2018-11-04T01:47:26.810Z,23.23
2018-11-04T01:48:02.184Z,23.26
2018-11-04T01:48:37.564Z,23.25
2018-11-04T01:49:13.132Z,23.24
2018-11-04T01:49:48.548Z,23.23
2018-11-04T01:50:24.025Z,23.23
2018-11-04T01:50:59.418Z,23.26
2018-11-04T01:51:34.920Z,23.25
2018-11-04T01:52:10.087Z,23.21
2018-11-04T01:52:45.616Z,23.17
2018-11-04T01:53:21.036Z,23.17
2018-11-04T01:53:56.629Z,23.18
2018-11-04T01:54:31.904Z,23.22
2018-11-04T01:55:07.987Z,23.20
2018-11-04T01:55:43.389Z,23.16
2018-11-04T01:56:19.248Z,23.21
2018-11-04T01:56:54.574Z,23.19
2018-11-04T01:57:30.218Z,23.14
2018-11-04T01:58:06.713Z,23.14
2018-11-04T01:58:42.211Z,23.16
2018-11-04T01:59:17.576Z,23.14
2018-11-04T01:59:52.965Z,23.14
2018-11-04T02:00:28.582Z,23.16
2018-11-04T02:01:03.913Z,23.15
2018-11-04T02:01:39.311Z,23.14
2018-11-04T02:02:14.583Z,23.13
2018-11-04T02:02:50.184Z,23.18
2018-11-04T02:03:25.428Z,23.18
2018-11-04T02:04:00.740Z,23.21
2018-11-04T02:04:36.117Z,23.22
2018-11-04T02:05:12.795Z,23.19
2018-11-04T02:05:48.128Z,23.14
2018-11-04T02:06:23.401Z,23.09
2018-11-04T02:06:58.832Z,23.13
2018-11-04T02:07:34.200Z,23.18
2018-11-04T02:08:09.647Z,23.24
2018-11-04T02:08:45.092Z,23.23
2018-11-04T02:09:20.492Z,23.19
2018-11-04T02:09:55.780Z,23.16
2018-11-04T02:10:31.038Z,23.16
2018-11-04T02:11:06.688Z,23.10
2018-11-04T02:11:42.292Z,23.06
2018-11-04T02:12:17.633Z,23.04
2018-11-04T02:12:53.133Z,23.03
2018-11-04T02:13:28.709Z,23.04
2018-11-04T02:14:03.935Z,23.07
2018-11-04T02:14:39.482Z,23.06
2018-11-04T02:15:14.795Z,23.09
2018-11-04T02:15:50.658Z,23.11
2018-11-04T02:16:25.916Z,23.08
2018-11-04T02:17:01.105Z,23.10
2018-11-04T02:17:36.840Z,23.11
2018-11-04T02:18:12.113Z,23.12
2018-11-04T02:18:47.433Z,23.14
2018-11-04T02:19:22.870Z,23.13
2018-11-04T02:19:58.408Z,23.12
2018-11-04T02:20:33.789Z,23.12
2018-11-04T02:21:09.243Z,23.05
2018-11-04T02:21:44.563Z,23.08
2018-11-04T02:22:19.986Z,23.05
2018-11-04T02:22:55.262Z,23.06
2018-11-04T02:23:30.779Z,23.12
2018-11-04T02:24:06.419Z,23.16
2018-11-04T02:24:41.686Z,23.14
2018-11-04T02:25:17.201Z,23.14
2018-11-04T02:25:52.574Z,23.19
2018-11-04T02:26:27.861Z,23.15
2018-11-04T02:27:03.237Z,23.16
2018-11-04T02:27:38.436Z,23.13
2018-11-04T02:28:13.676Z,23.11
2018-11-04T02:28:49.118Z,23.12
2018-11-04T02:29:24.397Z,23.16
2018-11-04T02:29:59.803Z,23.15
2018-11-04T02:30:35.125Z,23.15
2018-11-04T02:31:10.610Z,23.08
2018-11-04T02:31:45.978Z,23.07
2018-11-04T02:32:21.664Z,23.05
2018-11-04T02:32:57.004Z,23.05
2018-11-04T02:33:32.156Z,23.01
2018-11-04T02:34:07.930Z,22.94
2018-11-04T02:34:43.403Z,22.91
2018-11-04T02:35:18.656Z,22.99
2018-11-04T02:35:54.675Z,23.04
2018-11-04T02:36:30.056Z,23.03
2018-11-04T02:37:05.509Z,23.03
2018-11-04T02:37:41.843Z,23.02
2018-11-04T02:38:17.030Z,23.05
2018-11-04T02:38:52.532Z,22.76
2018-11-04T02:39:27.862Z,23.04
2018-11-04T02:40:03.163Z,23.03
2018-11-04T02:40:38.510Z,23.03
2018-11-04T02:41:14.018Z,23.08
2018-11-04T02:41:49.160Z,23.09
2018-11-04T02:42:24.318Z,23.05
2018-11-04T02:42:59.832Z,23.03
2018-11-04T02:43:35.252Z,22.99
2018-11-04T02:44:11.075Z,23.00
2018-11-04T02:44:46.468Z,23.06
2018-11-04T02:45:21.969Z,23.09
2018-11-04T02:45:57.479Z,23.13
2018-11-04T02:46:32.893Z,23.12
2018-11-04T02:47:08.307Z,23.09
2018-11-04T02:47:43.451Z,23.13
2018-11-04T02:48:18.929Z,23.16
2018-11-04T02:48:54.217Z,23.10
2018-11-04T02:49:29.543Z,23.02
2018-11-04T02:50:05.029Z,23.03
2018-11-04T02:50:40.204Z,23.03
2018-11-04T02:51:15.728Z,23.06
2018-11-04T02:51:51.372Z,23.10
2018-11-04T02:52:26.764Z,23.00
2018-11-04T02:53:02.165Z,23.05
2018-11-04T02:53:37.409Z,23.02
2018-11-04T02:54:12.808Z,23.01
2018-11-04T02:54:48.345Z,23.03
2018-11-04T02:55:23.718Z,23.03
2018-11-04T02:55:59.515Z,23.03
2018-11-04T02:56:34.891Z,23.05
2018-11-04T02:57:10.424Z,23.07
2018-11-04T02:57:45.660Z,23.05
2018-11-04T02:58:20.910Z,23.07
2018-11-04T02:58:56.313Z,23.01
2018-11-04T02:59:31.547Z,23.01
2018-11-04T03:00:09.113Z,22.95
2018-11-04T03:00:44.471Z,22.91
2018-11-04T03:01:19.814Z,23.02
2018-11-04T03:01:55.147Z,23.10
2018-11-04T03:02:30.504Z,23.11
2018-11-04T03:03:06.268Z,23.09
2018-11-04T03:03:41.740Z,23.09
2018-11-04T03:04:17.047Z,23.06
2018-11-04T03:04:52.627Z,23.10
2018-11-04T03:05:27.910Z,23.11
2018-11-04T03:06:03.214Z,23.09
2018-11-04T03:06:38.475Z,23.11
2018-11-04T03:07:13.945Z,23.12
2018-11-04T03:07:49.540Z,23.06
2018-11-04T03:08:24.782Z,23.03
2018-11-04T03:09:00.154Z,23.03
2018-11-04T03:09:35.615Z,23.05
2018-11-04T03:10:12.217Z,23.08
2018-11-04T03:10:47.577Z,23.05
2018-11-04T03:11:22.983Z,23.03
2018-11-04T03:11:58.428Z,23.03
2018-11-04T03:12:33.721Z,23.01
2018-11-04T03:13:09.250Z,23.10
2018-11-04T03:13:44.974Z,22.98
2018-11-04T03:14:20.336Z,22.84
2018-11-04T03:14:55.726Z,22.82
2018-11-04T03:15:31.171Z,22.84
2018-11-04T03:16:06.525Z,22.95
2018-11-04T03:16:41.795Z,22.98
2018-11-04T03:17:17.231Z,22.98
2018-11-04T03:17:52.526Z,22.95
2018-11-04T03:18:27.997Z,22.97
2018-11-04T03:19:03.559Z,22.89
2018-11-04T03:19:39.077Z,22.94
2018-11-04T03:20:14.697Z,22.96
2018-11-04T03:20:50.181Z,22.98
2018-11-04T03:21:25.646Z,22.99
2018-11-04T03:22:01.024Z,22.95
2018-11-04T03:22:36.547Z,22.97
2018-11-04T03:23:11.890Z,22.96
2018-11-04T03:23:47.467Z,22.92
2018-11-04T03:24:22.788Z,22.92
2018-11-04T03:24:58.257Z,22.93
2018-11-04T03:25:33.670Z,22.96
2018-11-04T03:26:09.013Z,23.00
2018-11-04T03:26:44.459Z,22.99
2018-11-04T03:27:20.004Z,23.03
2018-11-04T03:27:55.362Z,22.98
2018-11-04T03:28:30.825Z,22.97
2018-11-04T03:29:06.078Z,23.00
2018-11-04T03:29:41.472Z,22.96
2018-11-04T03:30:16.494Z,22.96
2018-11-04T03:30:52.007Z,22.94
2018-11-04T03:31:27.409Z,22.94
2018-11-04T03:32:02.636Z,22.95
2018-11-04T03:32:37.978Z,22.97
2018-11-04T03:33:13.375Z,23.03
2018-11-04T03:33:48.851Z,23.07
2018-11-04T03:34:24.161Z,23.08
2018-11-04T03:34:59.551Z,23.10
2018-11-04T03:35:34.674Z,23.09
2018-11-04T03:36:10.156Z,23.07
2018-11-04T03:36:45.680Z,23.00
2018-11-04T03:37:21.042Z,22.90
2018-11-04T03:37:56.249Z,22.83
2018-11-04T03:38:31.767Z,22.76
2018-11-04T03:39:10.212Z,22.71
2018-11-04T03:39:45.649Z,22.71
2018-11-04T03:40:21.109Z,22.69
2018-11-04T03:40:56.493Z,22.62
2018-11-04T03:41:31.863Z,22.60
2018-11-04T03:42:07.329Z,22.57
2018-11-04T03:42:43.373Z,22.60
2018-11-04T03:43:18.694Z,22.55
2018-11-04T03:43:53.953Z,22.54
2018-11-04T03:44:29.422Z,22.54
2018-11-04T03:45:04.947Z,22.52
2018-11-04T03:45:40.166Z,22.53
2018-11-04T03:46:15.649Z,22.54
2018-11-04T03:46:50.885Z,22.57
2018-11-04T03:47:26.168Z,22.60
2018-11-04T03:48:01.528Z,22.63
2018-11-04T03:48:36.902Z,22.58
2018-11-04T03:49:12.323Z,22.59
2018-11-04T03:49:47.695Z,22.65
2018-11-04T03:50:23.009Z,22.66
2018-11-04T03:50:58.429Z,22.68
2018-11-04T03:51:33.937Z,22.77
2018-11-04T03:52:09.474Z,22.81
2018-11-04T03:52:44.764Z,22.84
2018-11-04T03:53:20.117Z,22.85
2018-11-04T03:53:55.413Z,22.87
2018-11-04T03:54:30.789Z,22.90
2018-11-04T03:55:06.472Z,22.90
2018-11-04T03:55:41.973Z,22.92
2018-11-04T03:56:17.343Z,22.88
2018-11-04T03:56:52.860Z,22.90
2018-11-04T03:57:28.261Z,22.90
2018-11-04T03:58:03.940Z,22.95
2018-11-04T03:58:39.442Z,22.91
2018-11-04T03:59:14.832Z,22.89
2018-11-04T03:59:50.243Z,22.88
2018-11-04T04:00:25.621Z,22.85
2018-11-04T04:01:01.120Z,22.80
2018-11-04T04:01:36.571Z,22.71
2018-11-04T04:02:11.946Z,22.66
2018-11-04T04:02:47.274Z,22.62
2018-11-04T04:03:22.746Z,22.58
2018-11-04T04:03:58.115Z,22.57
2018-11-04T04:04:33.486Z,22.59
2018-11-04T04:05:10.567Z,22.61
2018-11-04T04:05:46.135Z,22.65
2018-11-04T04:06:21.542Z,22.68
2018-11-04T04:06:57.011Z,22.68
2018-11-04T04:07:32.587Z,22.72
2018-11-04T04:08:07.816Z,22.76
2018-11-04T04:08:43.201Z,22.72
2018-11-04T04:09:18.617Z,22.67
2018-11-04T04:09:53.837Z,22.60
2018-11-04T04:10:29.249Z,22.58
2018-11-04T04:11:04.640Z,22.60
2018-11-04T04:11:40.052Z,22.64
2018-11-04T04:12:15.531Z,22.71
2018-11-04T04:12:50.962Z,22.72
2018-11-04T04:13:26.302Z,22.76
2018-11-04T04:14:02.549Z,22.86
2018-11-04T04:14:37.986Z,22.84
2018-11-04T04:15:13.286Z,22.82
2018-11-04T04:15:48.690Z,22.72
2018-11-04T04:16:24.386Z,22.75
2018-11-04T04:16:59.708Z,22.79
2018-11-04T04:17:35.212Z,22.84
2018-11-04T04:18:10.541Z,22.84
2018-11-04T04:18:45.872Z,22.85
2018-11-04T04:19:21.180Z,22.85
2018-11-04T04:19:56.584Z,22.92
2018-11-04T04:20:31.918Z,22.97
2018-11-04T04:21:10.346Z,23.04
2018-11-04T04:21:45.512Z,23.07
2018-11-04T04:22:20.957Z,23.08
2018-11-04T04:22:56.309Z,22.91
2018-11-04T04:23:31.619Z,22.84
2018-11-04T04:24:07.187Z,22.81
2018-11-04T04:24:42.584Z,22.77
2018-11-04T04:25:18.097Z,22.72
2018-11-04T04:25:53.342Z,22.64
2018-11-04T04:26:28.751Z,22.59
2018-11-04T04:27:04.144Z,22.55
2018-11-04T04:27:39.490Z,22.56
2018-11-04T04:28:15.011Z,22.57
2018-11-04T04:28:50.505Z,22.64
2018-11-04T04:29:25.993Z,22.67
2018-11-04T04:30:01.224Z,22.63
2018-11-04T04:30:36.596Z,22.55
2018-11-04T04:31:11.937Z,22.55
2018-11-04T04:31:47.252Z,22.67
2018-11-04T04:32:22.484Z,22.66
2018-11-04T04:32:57.728Z,22.70
2018-11-04T04:33:33.045Z,22.72
2018-11-04T04:34:08.361Z,22.75
2018-11-04T04:34:43.686Z,22.77
2018-11-04T04:35:19.046Z,22.83
2018-11-04T04:35:54.372Z,22.92
2018-11-04T04:36:29.707Z,22.97
2018-11-04T04:37:05.154Z,23.01
2018-11-04T04:37:41.074Z,22.96
2018-11-04T04:38:16.636Z,22.88
2018-11-04T04:38:52.093Z,22.91
2018-11-04T04:39:27.486Z,22.84
2018-11-04T04:40:02.906Z,22.76
2018-11-04T04:40:38.257Z,22.76
2018-11-04T04:41:13.709Z,22.69
2018-11-04T04:41:49.265Z,22.70
2018-11-04T04:42:24.733Z,22.73
2018-11-04T04:43:00.130Z,22.70
2018-11-04T04:43:35.610Z,22.74
2018-11-04T04:44:10.991Z,22.81
2018-11-04T04:44:46.891Z,22.85
2018-11-04T04:45:22.289Z,22.89
2018-11-04T04:45:57.960Z,22.91
2018-11-04T04:46:33.284Z,22.82
2018-11-04T04:47:08.728Z,22.78
2018-11-04T04:47:44.308Z,22.76
2018-11-04T04:48:19.672Z,22.75
2018-11-04T04:48:55.146Z,22.71
2018-11-04T04:49:30.442Z,22.67
2018-11-04T04:50:06.245Z,22.66
2018-11-04T04:50:41.427Z,22.69
2018-11-04T04:51:16.963Z,22.71
2018-11-04T04:51:52.466Z,22.69
2018-11-04T04:52:27.836Z,22.68
2018-11-04T04:53:03.259Z,22.67
2018-11-04T04:53:38.491Z,22.71
2018-11-04T04:54:14.059Z,22.73
2018-11-04T04:54:49.495Z,22.70
2018-11-04T04:55:24.959Z,22.75
2018-11-04T04:56:00.408Z,22.69
2018-11-04T04:56:35.734Z,22.70
2018-11-04T04:57:11.077Z,22.74
2018-11-04T04:57:46.385Z,22.73
2018-11-04T04:58:21.839Z,22.68
2018-11-04T04:58:57.189Z,22.66
2018-11-04T04:59:32.692Z,22.68
2018-11-04T05:00:08.523Z,22.70
2018-11-04T05:00:43.856Z,22.67
2018-11-04T05:01:19.259Z,22.68
2018-11-04T05:01:54.699Z,22.64
2018-11-04T05:02:30.139Z,22.67
2018-11-04T05:03:05.450Z,22.79
2018-11-04T05:03:40.472Z,22.80
2018-11-04T05:04:16.302Z,22.74
2018-11-04T05:04:51.609Z,22.80
2018-11-04T05:05:27.162Z,22.77
2018-11-04T05:06:02.521Z,22.77
2018-11-04T05:06:37.773Z,22.80
2018-11-04T05:07:13.317Z,22.79
2018-11-04T05:07:48.858Z,22.76
2018-11-04T05:08:24.141Z,22.73
2018-11-04T05:08:59.706Z,22.67
2018-11-04T05:09:34.917Z,22.66
2018-11-04T05:10:10.385Z,22.67
2018-11-04T05:10:46.421Z,22.63
2018-11-04T05:11:21.871Z,22.60
2018-11-04T05:11:57.208Z,22.63
2018-11-04T05:12:32.739Z,22.61
2018-11-04T05:13:07.944Z,22.64
2018-11-04T05:13:43.230Z,22.64
2018-11-04T05:14:18.551Z,22.64
2018-11-04T05:14:53.860Z,22.64
2018-11-04T05:15:29.298Z,22.61
2018-11-04T05:16:04.487Z,22.65
2018-11-04T05:16:40.048Z,22.68
2018-11-04T05:17:15.346Z,22.71
2018-11-04T05:17:50.788Z,22.62
2018-11-04T05:18:26.095Z,22.61
2018-11-04T05:19:02.022Z,22.61
2018-11-04T05:19:37.328Z,22.59
2018-11-04T05:20:12.984Z,22.62
2018-11-04T05:20:48.174Z,22.73
2018-11-04T05:21:23.900Z,22.68
2018-11-04T05:21:59.398Z,22.65
2018-11-04T05:22:34.708Z,22.64
2018-11-04T05:23:10.340Z,22.66
2018-11-04T05:23:45.612Z,22.64
2018-11-04T05:24:21.096Z,22.66
2018-11-04T05:24:56.444Z,22.65
2018-11-04T05:25:31.778Z,22.68
2018-11-04T05:26:07.864Z,22.66
2018-11-04T05:26:43.072Z,22.67
2018-11-04T05:27:18.460Z,22.75
2018-11-04T05:27:53.725Z,22.75
2018-11-04T05:28:29.100Z,22.69
2018-11-04T05:29:04.439Z,22.64
2018-11-04T05:29:39.833Z,22.57
2018-11-04T05:30:15.266Z,22.53
2018-11-04T05:30:50.590Z,22.59
2018-11-04T05:31:26.136Z,22.52
2018-11-04T05:32:01.504Z,22.49
2018-11-04T05:32:36.821Z,22.49
2018-11-04T05:33:12.096Z,22.55
2018-11-04T05:33:47.353Z,22.59
2018-11-04T05:34:22.866Z,22.58
2018-11-04T05:34:58.498Z,22.58
2018-11-04T05:35:33.986Z,22.61
2018-11-04T05:36:09.367Z,22.59
2018-11-04T05:36:44.913Z,22.60
2018-11-04T05:37:20.374Z,22.58
2018-11-04T05:37:55.740Z,22.60
2018-11-04T05:38:31.126Z,22.59
2018-11-04T05:39:09.224Z,22.60
2018-11-04T05:39:44.619Z,22.62
2018-11-04T05:40:19.963Z,22.62
2018-11-04T05:40:55.285Z,22.65
2018-11-04T05:41:30.398Z,22.57
2018-11-04T05:42:06.047Z,22.52
2018-11-04T05:42:41.291Z,22.53
2018-11-04T05:43:16.786Z,22.58
2018-11-04T05:43:51.931Z,22.63
2018-11-04T05:44:27.220Z,22.64
2018-11-04T05:45:02.936Z,22.62
2018-11-04T05:45:38.320Z,22.56
2018-11-04T05:46:13.691Z,22.54
2018-11-04T05:46:48.864Z,22.48
2018-11-04T05:47:24.491Z,22.46
2018-11-04T05:48:00.106Z,22.50
2018-11-04T05:48:35.450Z,22.54
2018-11-04T05:49:10.661Z,22.45
2018-11-04T05:49:46.015Z,22.41
2018-11-04T05:50:21.780Z,22.41
2018-11-04T05:50:57.163Z,22.45
2018-11-04T05:51:32.418Z,22.41
2018-11-04T05:52:08.560Z,22.38
2018-11-04T05:52:43.950Z,22.41
2018-11-04T05:53:19.263Z,22.43
2018-11-04T05:53:54.734Z,22.45
2018-11-04T05:54:30.154Z,22.42
2018-11-04T05:55:06.464Z,22.43
2018-11-04T05:55:41.802Z,22.47
2018-11-04T05:56:17.329Z,22.49
2018-11-04T05:56:52.699Z,22.47
2018-11-04T05:57:28.003Z,22.47
2018-11-04T05:58:03.329Z,22.45
2018-11-04T05:58:38.873Z,22.47
2018-11-04T05:59:14.181Z,22.44
2018-11-04T05:59:49.568Z,22.47
2018-11-04T06:00:24.909Z,22.52
2018-11-04T06:01:00.406Z,22.43
2018-11-04T06:01:35.871Z,22.40
2018-11-04T06:02:11.269Z,22.37
2018-11-04T06:02:46.711Z,22.43
2018-11-04T06:03:22.192Z,22.46
2018-11-04T06:03:57.665Z,22.51
2018-11-04T06:04:33.272Z,22.53
2018-11-04T06:05:09.719Z,22.54
2018-11-04T06:05:44.905Z,22.56
2018-11-04T06:06:20.841Z,22.55
2018-11-04T06:06:56.180Z,22.55
2018-11-04T06:07:31.701Z,22.51
2018-11-04T06:08:07.295Z,22.42
2018-11-04T06:08:42.588Z,22.36
2018-11-04T06:09:18.132Z,22.33
2018-11-04T06:09:53.433Z,22.37
2018-11-04T06:10:28.767Z,22.33
2018-11-04T06:11:04.208Z,22.30
2018-11-04T06:11:39.677Z,22.28
2018-11-04T06:12:15.028Z,22.30
2018-11-04T06:12:50.338Z,22.34
2018-11-04T06:13:25.866Z,22.41
2018-11-04T06:14:01.423Z,22.45
2018-11-04T06:14:36.605Z,22.43
2018-11-04T06:15:12.008Z,22.42
2018-11-04T06:15:47.404Z,22.49
2018-11-04T06:16:22.739Z,22.54
2018-11-04T06:16:58.298Z,22.57
2018-11-04T06:17:33.626Z,22.57
2018-11-04T06:18:09.013Z,22.58
2018-11-04T06:18:44.286Z,22.58
2018-11-04T06:19:19.853Z,22.48
2018-11-04T06:19:55.608Z,22.57
2018-11-04T06:20:30.845Z,22.57
2018-11-04T06:21:06.947Z,22.52
2018-11-04T06:21:42.251Z,22.51
2018-11-04T06:22:17.572Z,22.54
2018-11-04T06:22:52.959Z,22.53
2018-11-04T06:23:28.340Z,22.55
2018-11-04T06:24:03.785Z,22.46
2018-11-04T06:24:39.239Z,22.49
2018-11-04T06:25:14.746Z,22.54
2018-11-04T06:25:50.061Z,22.56
2018-11-04T06:26:25.658Z,22.55
2018-11-04T06:27:01.020Z,22.49
2018-11-04T06:27:36.279Z,22.45
2018-11-04T06:28:11.725Z,22.46
2018-11-04T06:28:47.098Z,22.50
2018-11-04T06:29:22.753Z,22.43
2018-11-04T06:29:58.216Z,22.37
2018-11-04T06:30:33.828Z,22.38
2018-11-04T06:31:09.250Z,22.40
2018-11-04T06:31:44.502Z,22.39
2018-11-04T06:32:19.717Z,22.38
2018-11-04T06:32:54.931Z,22.45
2018-11-04T06:33:30.351Z,22.46
2018-11-04T06:34:05.735Z,22.49
2018-11-04T06:34:42.322Z,22.50
2018-11-04T06:35:17.608Z,22.48
2018-11-04T06:35:52.848Z,22.46
2018-11-04T06:36:28.320Z,22.44
2018-11-04T06:37:03.683Z,22.45
2018-11-04T06:37:39.441Z,22.42
2018-11-04T06:38:14.790Z,22.41
2018-11-04T06:38:50.322Z,22.42
2018-11-04T06:39:25.564Z,22.32
2018-11-04T06:40:01.083Z,22.28
2018-11-04T06:40:36.608Z,22.26
2018-11-04T06:41:12.160Z,22.34
2018-11-04T06:41:47.364Z,22.39
2018-11-04T06:42:22.671Z,22.40
2018-11-04T06:42:57.851Z,22.41
2018-11-04T06:43:33.067Z,22.43
2018-11-04T06:44:09.112Z,22.47
2018-11-04T06:44:44.513Z,22.50
2018-11-04T06:45:20.366Z,22.47
2018-11-04T06:45:55.781Z,22.42
2018-11-04T06:46:31.173Z,22.41
2018-11-04T06:47:06.803Z,22.44
2018-11-04T06:47:42.271Z,22.41
2018-11-04T06:48:17.569Z,22.42
2018-11-04T06:48:52.789Z,22.41
2018-11-04T06:49:28.161Z,22.44
2018-11-04T06:50:03.781Z,22.38
2018-11-04T06:50:39.991Z,22.38
2018-11-04T06:51:15.366Z,22.37
2018-11-04T06:51:50.637Z,22.42
2018-11-04T06:52:26.126Z,22.43
2018-11-04T06:53:01.385Z,22.45
2018-11-04T06:53:36.793Z,22.47
2018-11-04T06:54:12.256Z,22.54
2018-11-04T06:54:47.613Z,22.51
2018-11-04T06:55:22.909Z,22.42
2018-11-04T06:55:58.309Z,22.43
2018-11-04T06:56:33.792Z,22.49
2018-11-04T06:57:09.058Z,22.51
2018-11-04T06:57:44.210Z,22.47
2018-11-04T06:58:19.607Z,22.43
2018-11-04T06:58:55.098Z,22.46
2018-11-04T06:59:30.436Z,22.49
2018-11-04T07:00:06.999Z,22.47
2018-11-04T07:00:42.138Z,22.43
2018-11-04T07:01:17.518Z,22.48
2018-11-04T07:01:53.049Z,22.54
2018-11-04T07:02:28.441Z,22.58
2018-11-04T07:03:03.731Z,22.53
2018-11-04T07:03:39.092Z,22.54
2018-11-04T07:04:23.207Z,22.51
2018-11-04T07:04:58.450Z,22.45
2018-11-04T07:05:33.619Z,22.44
2018-11-04T07:06:08.837Z,22.44
2018-11-04T07:06:44.319Z,22.48
2018-11-04T07:07:19.554Z,22.43
2018-11-04T07:07:55.162Z,22.39
2018-11-04T07:08:30.413Z,22.37
2018-11-04T07:09:07.993Z,22.34
2018-11-04T07:09:43.077Z,22.35
2018-11-04T07:10:18.579Z,22.39
2018-11-04T07:10:53.899Z,22.39
2018-11-04T07:11:29.256Z,22.35
2018-11-04T07:12:04.637Z,22.33
2018-11-04T07:12:40.028Z,22.33
2018-11-04T07:13:15.227Z,22.35
2018-11-04T07:13:50.643Z,22.35
2018-11-04T07:14:26.174Z,22.35
2018-11-04T07:15:01.477Z,22.28
2018-11-04T07:15:36.720Z,22.24
2018-11-04T07:16:11.979Z,22.27
2018-11-04T07:16:47.530Z,22.36
2018-11-04T07:17:23.039Z,22.36
2018-11-04T07:17:58.371Z,22.36
2018-11-04T07:18:33.868Z,22.38
2018-11-04T07:19:09.104Z,22.40
2018-11-04T07:19:44.585Z,22.44
2018-11-04T07:20:19.955Z,22.44
2018-11-04T07:20:55.327Z,22.45
2018-11-04T07:21:30.784Z,21.88
2018-11-04T07:22:06.247Z,22.40
2018-11-04T07:22:41.441Z,22.38
2018-11-04T07:23:16.938Z,22.34
2018-11-04T07:23:52.286Z,22.37
2018-11-04T07:24:27.620Z,22.37
2018-11-04T07:25:03.115Z,22.35
2018-11-04T07:25:38.563Z,22.34
2018-11-04T07:26:13.991Z,22.35
2018-11-04T07:26:49.213Z,22.40
2018-11-04T07:27:24.764Z,22.40
2018-11-04T07:28:00.036Z,22.34
2018-11-04T07:28:35.392Z,22.37
2018-11-04T07:29:10.962Z,22.40
2018-11-04T07:29:46.270Z,22.40
2018-11-04T07:30:21.496Z,22.36
2018-11-04T07:30:56.869Z,22.40
2018-11-04T07:31:32.084Z,22.41
2018-11-04T07:32:07.657Z,22.45
2018-11-04T07:32:42.969Z,22.45
2018-11-04T07:33:18.451Z,22.44
2018-11-04T07:33:53.801Z,22.39
2018-11-04T07:34:29.224Z,22.33
2018-11-04T07:35:04.889Z,22.38
2018-11-04T07:35:40.105Z,22.41
2018-11-04T07:36:15.556Z,22.43
2018-11-04T07:36:50.761Z,22.41